createdAt,value
2016-07-19T00:00:10.963Z,45.13
2016-07-19T00:01:10.261Z,45.1
2016-07-19T00:02:10.972Z,45.2
2016-07-19T00:03:10.976Z,45.3
2016-07-19T00:04:10.984Z,45.03
2016-07-19T00:05:10.281Z,44.93
2016-07-19T00:06:10.285Z,45.13
2016-07-19T00:07:10.540Z,44.74
2016-07-19T00:08:10.297Z,44.84
2016-07-19T00:09:11.009Z,44.84
2016-07-19T00:10:10.306Z,44.74
2016-07-19T00:11:11.017Z,44.64
2016-07-19T00:12:11.031Z,44.16
2016-07-19T00:13:11.027Z,43.96
2016-07-19T00:14:11.045Z,44.35
2016-07-19T00:15:10.331Z,43.87
2016-07-19T00:16:10.339Z,43.38
2016-07-19T00:17:11.057Z,43.48
2016-07-19T00:18:10.898Z,43.48
2016-07-19T00:19:11.061Z,43.19
2016-07-19T00:20:12.222Z,43.19
2016-07-19T00:21:11.071Z,43.48
2016-07-19T00:22:11.077Z,42.71
2016-07-19T00:23:11.083Z,42.61
2016-07-19T00:24:11.088Z,42.61
2016-07-19T00:25:11.095Z,42.4
2016-07-19T00:26:11.110Z,42.41
2016-07-19T00:27:11.102Z,42.51
2016-07-19T00:28:10.401Z,41.93
2016-07-19T00:29:10.407Z,42.03
2016-07-19T00:30:10.412Z,41.25
2016-07-19T00:31:12.272Z,41.24
2016-07-19T00:32:10.435Z,41.35
2016-07-19T00:33:11.135Z,40.86
2016-07-19T00:34:10.437Z,41.35
2016-07-19T00:35:11.147Z,40.28
2016-07-19T00:36:11.154Z,41.25
2016-07-19T00:37:11.157Z,41.25
2016-07-19T00:38:11.172Z,41.45
2016-07-19T00:39:11.177Z,41.45
2016-07-19T00:40:10.468Z,41.33
2016-07-19T00:41:11.181Z,41.45
2016-07-19T00:42:11.496Z,41.64
2016-07-19T00:43:10.486Z,41.35
2016-07-19T00:44:10.489Z,42.41
2016-07-19T00:45:11.201Z,41.42
2016-07-19T00:46:10.500Z,41.83
2016-07-19T00:47:11.213Z,41.64
2016-07-19T00:48:11.216Z,42.13
2016-07-19T00:49:10.528Z,42
2016-07-19T00:50:10.521Z,42.51
2016-07-19T00:51:10.524Z,42.51
2016-07-19T00:52:11.239Z,41.83
2016-07-19T00:53:11.037Z,41.64
2016-07-19T00:54:11.249Z,42.41
2016-07-19T00:55:10.547Z,42.51
2016-07-19T00:56:11.261Z,42.3
2016-07-19T00:57:11.265Z,42.78
2016-07-19T00:58:10.561Z,42.49
2016-07-19T00:59:11.274Z,42.71
2016-07-19T01:00:10.574Z,42.97
2016-07-19T01:01:11.285Z,43.46
2016-07-19T01:02:11.876Z,44.26
2016-07-19T01:03:10.588Z,44.64
2016-07-19T01:04:11.145Z,45.01
2016-07-19T01:05:11.304Z,45.01
2016-07-19T01:06:12.399Z,45.01
2016-07-19T01:07:11.314Z,45.01
2016-07-19T01:08:10.617Z,44.81
2016-07-19T01:09:10.667Z,45.2
2016-07-19T01:10:11.333Z,45.2
2016-07-19T01:11:10.627Z,45.2
2016-07-19T01:12:11.340Z,45.42
2016-07-19T01:13:11.346Z,45.2
2016-07-19T01:14:10.646Z,45.3
2016-07-19T01:15:11.357Z,45.59
2016-07-19T01:16:11.361Z,44.23
2016-07-19T01:17:12.487Z,44.33
2016-07-19T01:18:10.675Z,44.43
2016-07-19T01:19:10.674Z,44.04
2016-07-19T01:20:10.674Z,44.06
2016-07-19T01:21:11.389Z,43.55
2016-07-19T01:22:11.393Z,43.46
2016-07-19T01:23:11.397Z,43.19
2016-07-19T01:24:11.403Z,42.88
2016-07-19T01:25:11.408Z,42.88
2016-07-19T01:26:10.853Z,42.3
2016-07-19T01:27:10.711Z,42.78
2016-07-19T01:28:12.221Z,42.78
2016-07-19T01:29:11.425Z,42.88
2016-07-19T01:30:10.731Z,42.9
2016-07-19T01:31:11.438Z,42.4
2016-07-19T01:32:11.445Z,42.49
2016-07-19T01:33:10.745Z,42.59
2016-07-19T01:34:10.746Z,42.51
2016-07-19T01:35:11.460Z,42.4
2016-07-19T01:36:11.463Z,42.78
2016-07-19T01:37:11.476Z,42.78
2016-07-19T01:38:11.473Z,43.37
2016-07-19T01:39:12.379Z,43.07
2016-07-19T01:40:10.775Z,42.78
2016-07-19T01:41:10.780Z,42.78
2016-07-19T01:42:11.493Z,43.27
2016-07-19T01:43:11.499Z,43.27
2016-07-19T01:44:11.504Z,43.85
2016-07-19T01:45:11.508Z,44.23
2016-07-19T01:46:11.512Z,44.81
2016-07-19T01:47:11.517Z,45.2
2016-07-19T01:48:11.524Z,45.1
2016-07-19T01:49:11.527Z,45.2
2016-07-19T01:50:12.280Z,45.4
2016-07-19T01:51:10.830Z,45.49
2016-07-19T01:52:10.833Z,45.59
2016-07-19T01:53:11.545Z,45.49
2016-07-19T01:54:11.551Z,45.78
2016-07-19T01:55:11.555Z,46.17
2016-07-19T01:56:11.560Z,46.15
2016-07-19T01:57:10.854Z,46.26
2016-07-19T01:58:11.569Z,46.15
2016-07-19T01:59:10.864Z,46.36
2016-07-19T02:00:10.872Z,45.98
2016-07-19T02:01:12.435Z,45.78
2016-07-19T02:02:11.585Z,46.08
2016-07-19T02:03:10.883Z,46.34
2016-07-19T02:04:10.889Z,46.46
2016-07-19T02:05:10.900Z,46.46
2016-07-19T02:06:11.605Z,46.46
2016-07-19T02:07:11.610Z,47.24
2016-07-19T02:08:11.616Z,46.92
2016-07-19T02:09:11.670Z,46.66
2016-07-19T02:10:11.628Z,47.24
2016-07-19T02:11:11.629Z,47.21
2016-07-19T02:12:11.881Z,47.43
2016-07-19T02:13:11.638Z,47.89
2016-07-19T02:14:11.643Z,47.21
2016-07-19T02:15:11.649Z,47.43
2016-07-19T02:16:11.655Z,47.33
2016-07-19T02:17:10.954Z,47.52
2016-07-19T02:18:10.955Z,46.94
2016-07-19T02:19:10.960Z,47.81
2016-07-19T02:20:10.963Z,47.89
2016-07-19T02:21:11.675Z,47.89
2016-07-19T02:22:10.975Z,47.81
2016-07-19T02:23:12.037Z,47.62
2016-07-19T02:24:11.687Z,48.39
2016-07-19T02:25:10.985Z,47.99
2016-07-19T02:26:10.991Z,48.27
2016-07-19T02:27:11.707Z,48.18
2016-07-19T02:28:11.003Z,47.99
2016-07-19T02:29:11.712Z,48.57
2016-07-19T02:30:11.011Z,47.99
2016-07-19T02:31:11.721Z,48.18
2016-07-19T02:32:11.724Z,47.99
2016-07-19T02:33:11.025Z,48.18
2016-07-19T02:34:11.742Z,47.89
2016-07-19T02:35:11.741Z,48.66
2016-07-19T02:36:12.710Z,49.24
2016-07-19T02:37:11.747Z,48.95
2016-07-19T02:38:11.754Z,48.47
2016-07-19T02:39:11.758Z,48.37
2016-07-19T02:40:11.762Z,48.47
2016-07-19T02:41:11.059Z,48.95
2016-07-19T02:42:11.772Z,48.27
2016-07-19T02:43:11.775Z,48.27
2016-07-19T02:44:11.781Z,48.01
2016-07-19T02:45:11.079Z,48.37
2016-07-19T02:46:11.794Z,48.18
2016-07-19T02:47:12.089Z,48.08
2016-07-19T02:48:11.800Z,48.11
2016-07-19T02:49:11.805Z,48.2
2016-07-19T02:50:11.100Z,48.57
2016-07-19T02:51:11.105Z,48.11
2016-07-19T02:52:11.819Z,48.59
2016-07-19T02:53:11.824Z,48.57
2016-07-19T02:54:11.121Z,48.18
2016-07-19T02:55:11.834Z,48.49
2016-07-19T02:56:11.838Z,48.97
2016-07-19T02:57:11.845Z,48.11
2016-07-19T02:58:12.099Z,48.11
2016-07-19T02:59:11.149Z,48.59
2016-07-19T03:00:11.153Z,48.88
2016-07-19T03:01:11.167Z,48.57
2016-07-19T03:02:11.171Z,48.59
2016-07-19T03:03:11.872Z,49.07
2016-07-19T03:04:11.174Z,48.49
2016-07-19T03:05:11.883Z,48.69
2016-07-19T03:06:11.891Z,48.11
2016-07-19T03:07:11.194Z,48.59
2016-07-19T03:08:11.900Z,48.11
2016-07-19T03:09:11.662Z,48.69
2016-07-19T03:10:11.908Z,48.69
2016-07-19T03:11:11.209Z,48.88
2016-07-19T03:12:11.923Z,49.27
2016-07-19T03:13:11.928Z,48.88
2016-07-19T03:14:11.224Z,48.69
2016-07-19T03:15:11.231Z,48.39
2016-07-19T03:16:11.234Z,49.07
2016-07-19T03:17:11.241Z,48.88
2016-07-19T03:18:11.246Z,49.07
2016-07-19T03:19:11.959Z,49.34
2016-07-19T03:20:11.962Z,49.05
2016-07-19T03:21:11.967Z,48.86
2016-07-19T03:22:11.265Z,48.79
2016-07-19T03:23:11.978Z,48.69
2016-07-19T03:24:11.982Z,49.07
2016-07-19T03:25:11.988Z,48.86
2016-07-19T03:26:11.341Z,48.59
2016-07-19T03:27:11.997Z,48.59
2016-07-19T03:28:12.005Z,49.27
2016-07-19T03:29:12.010Z,49.37
2016-07-19T03:30:11.307Z,48.88
2016-07-19T03:31:12.022Z,49.05
2016-07-19T03:32:12.025Z,49.46
2016-07-19T03:33:12.545Z,49.46
2016-07-19T03:34:11.327Z,49.15
2016-07-19T03:35:12.042Z,48.86
2016-07-19T03:36:11.340Z,49.54
2016-07-19T03:37:12.055Z,49.15
2016-07-19T03:38:12.053Z,49.24
2016-07-19T03:39:12.061Z,48.95
2016-07-19T03:40:12.065Z,49.44
2016-07-19T03:41:12.068Z,49.73
2016-07-19T03:42:11.368Z,49.54
2016-07-19T03:43:12.079Z,48.95
2016-07-19T03:44:12.687Z,49.63
2016-07-19T03:45:11.380Z,49.92
2016-07-19T03:46:12.103Z,49.73
2016-07-19T03:47:12.101Z,49.44
2016-07-19T03:48:12.102Z,49.63
2016-07-19T03:49:12.113Z,49.73
2016-07-19T03:50:11.404Z,49.44
2016-07-19T03:51:11.409Z,49.73
2016-07-19T03:52:11.412Z,49.73
2016-07-19T03:53:11.423Z,49.73
2016-07-19T03:54:12.132Z,49.82
2016-07-19T03:55:12.234Z,49.73
2016-07-19T03:56:12.200Z,49.34
2016-07-19T03:57:12.000Z,49.82
2016-07-19T03:58:12.148Z,49.73
2016-07-19T03:59:12.155Z,49.73
2016-07-19T04:00:12.159Z,49.82
2016-07-19T04:01:12.163Z,49.54
2016-07-19T04:02:12.209Z,49.44
2016-07-19T04:03:12.172Z,49.82
2016-07-19T04:04:11.842Z,49.73
2016-07-19T04:05:11.483Z,49.73
2016-07-19T04:06:12.204Z,49.82
2016-07-19T04:07:11.486Z,49.82
2016-07-19T04:08:12.196Z,49.63
2016-07-19T04:09:12.248Z,49.92
2016-07-19T04:10:12.208Z,49.73
2016-07-19T04:11:11.559Z,49.34
2016-07-19T04:12:12.217Z,48.95
2016-07-19T04:13:13.120Z,49.24
2016-07-19T04:14:11.539Z,49.82
2016-07-19T04:15:12.230Z,49.54
2016-07-19T04:16:11.532Z,49.92
2016-07-19T04:17:12.241Z,48.86
2016-07-19T04:18:11.537Z,49.34
2016-07-19T04:19:12.256Z,49.24
2016-07-19T04:20:13.002Z,49.44
2016-07-19T04:21:11.551Z,49.44
2016-07-19T04:22:11.556Z,49.34
2016-07-19T04:23:11.562Z,49.63
2016-07-19T04:24:12.273Z,49.73
2016-07-19T04:25:12.292Z,49.73
2016-07-19T04:26:12.285Z,49.73
2016-07-19T04:27:11.600Z,49.63
2016-07-19T04:28:12.291Z,49.73
2016-07-19T04:29:12.604Z,49.73
2016-07-19T04:30:12.337Z,49.73
2016-07-19T04:31:11.603Z,49.05
2016-07-19T04:32:12.334Z,49.44
2016-07-19T04:33:12.317Z,49.44
2016-07-19T04:34:12.338Z,49.73
2016-07-19T04:35:12.324Z,49.15
2016-07-19T04:36:12.307Z,49.05
2016-07-19T04:37:12.334Z,49.05
2016-07-19T04:38:11.683Z,48.86
2016-07-19T04:39:12.343Z,49.05
2016-07-19T04:40:12.355Z,48.88
2016-07-19T04:41:11.750Z,48.97
2016-07-19T04:42:12.359Z,49.34
2016-07-19T04:43:11.754Z,49.15
2016-07-19T04:44:11.661Z,49.44
2016-07-19T04:45:12.415Z,49.44
2016-07-19T04:46:12.433Z,49.82
2016-07-19T04:47:12.389Z,49.54
2016-07-19T04:48:11.679Z,48.86
2016-07-19T04:49:12.393Z,49.05
2016-07-19T04:50:12.397Z,48.66
2016-07-19T04:51:11.696Z,48.86
2016-07-19T04:52:12.481Z,48.76
2016-07-19T04:53:11.745Z,48.88
2016-07-19T04:54:11.710Z,49.07
2016-07-19T04:55:12.512Z,49.34
2016-07-19T04:56:12.452Z,48.59
2016-07-19T04:57:12.543Z,48.11
2016-07-19T04:58:11.727Z,48.49
2016-07-19T04:59:12.468Z,48.2
2016-07-19T05:00:12.524Z,48.42
2016-07-19T05:01:12.481Z,47.91
2016-07-19T05:02:12.481Z,47.55
2016-07-19T05:03:11.755Z,47.55
2016-07-19T05:04:11.869Z,46.97
2016-07-19T05:05:12.470Z,46.67
2016-07-19T05:06:12.546Z,47.16
2016-07-19T05:07:12.485Z,46.87
2016-07-19T05:08:13.345Z,46.51
2016-07-19T05:09:12.496Z,46.31
2016-07-19T05:10:12.502Z,45.73
2016-07-19T05:11:12.505Z,46.41
2016-07-19T05:12:12.572Z,46.12
2016-07-19T05:13:11.979Z,46.22
2016-07-19T05:14:12.575Z,45.64
2016-07-19T05:15:13.074Z,45.44
2016-07-19T05:16:11.907Z,45.64
2016-07-19T05:17:12.551Z,45.54
2016-07-19T05:18:12.754Z,45.75
2016-07-19T05:19:11.947Z,45.56
2016-07-19T05:20:12.798Z,45.27
2016-07-19T05:21:12.688Z,45.47
2016-07-19T05:22:13.066Z,45.17
2016-07-19T05:23:12.744Z,45.47
2016-07-19T05:24:11.997Z,45.27
2016-07-19T05:25:11.897Z,44.98
2016-07-19T05:26:12.627Z,45.07
2016-07-19T05:27:12.637Z,45.17
2016-07-19T05:28:12.644Z,44.9
2016-07-19T05:29:13.195Z,44.61
2016-07-19T05:30:11.967Z,45
2016-07-19T05:31:12.009Z,45
2016-07-19T05:32:12.654Z,45.1
2016-07-19T05:33:12.752Z,45.2
2016-07-19T05:34:11.998Z,45.29
2016-07-19T05:35:12.765Z,44.71
2016-07-19T05:36:12.059Z,44.71
2016-07-19T05:37:12.796Z,44.42
2016-07-19T05:38:11.994Z,44.42
2016-07-19T05:39:12.719Z,44.05
2016-07-19T05:40:12.040Z,44.05
2016-07-19T05:41:12.108Z,44.44
2016-07-19T05:42:12.109Z,44.15
2016-07-19T05:43:12.976Z,44.24
2016-07-19T05:44:12.859Z,43.57
2016-07-19T05:45:12.808Z,43.66
2016-07-19T05:46:12.773Z,43.76
2016-07-19T05:47:12.143Z,43.18
2016-07-19T05:48:13.918Z,43.47
2016-07-19T05:49:12.180Z,44.24
2016-07-19T05:50:12.850Z,44.24
2016-07-19T05:51:12.112Z,44.24
2016-07-19T05:52:12.843Z,44.34
2016-07-19T05:53:12.986Z,43.95
2016-07-19T05:54:12.962Z,43.66
2016-07-19T05:55:12.930Z,43.27
2016-07-19T05:56:12.158Z,43.4
2016-07-19T05:57:12.873Z,42.99
2016-07-19T05:58:13.012Z,42.69
2016-07-19T05:59:12.980Z,42.91
2016-07-19T06:00:12.651Z,42.71
2016-07-19T06:01:12.980Z,42.61
2016-07-19T06:02:12.620Z,43.2
2016-07-19T06:03:12.982Z,43.01
2016-07-19T06:04:12.299Z,42.33
2016-07-19T06:05:13.085Z,42.52
2016-07-19T06:06:12.974Z,42.52
2016-07-19T06:07:14.147Z,42.74
2016-07-19T06:08:13.007Z,42.54
2016-07-19T06:09:13.093Z,43.02
2016-07-19T06:10:12.350Z,42.43
2016-07-19T06:11:13.031Z,43.01
2016-07-19T06:12:13.324Z,42.93
2016-07-19T06:13:12.363Z,42.64
2016-07-19T06:14:14.191Z,42.74
2016-07-19T06:15:12.424Z,42.35
2016-07-19T06:16:13.074Z,42.05
2016-07-19T06:17:12.408Z,41.67
2016-07-19T06:18:13.193Z,41.86
2016-07-19T06:19:13.173Z,41.98
2016-07-19T06:20:13.167Z,42.74
2016-07-19T06:21:12.491Z,41.86
2016-07-19T06:22:13.332Z,42.64
2016-07-19T06:23:13.197Z,41.86
2016-07-19T06:24:13.951Z,41.78
2016-07-19T06:25:12.536Z,41.98
2016-07-19T06:26:13.861Z,42.27
2016-07-19T06:27:12.470Z,41.78
2016-07-19T06:28:13.307Z,41.69
2016-07-19T06:29:12.585Z,42.18
2016-07-19T06:30:13.305Z,42.76
2016-07-19T06:31:13.426Z,42.27
2016-07-19T06:32:13.411Z,42.18
2016-07-19T06:33:13.266Z,41.78
2016-07-19T06:34:13.333Z,41.69
2016-07-19T06:35:12.555Z,42.08
2016-07-19T06:36:14.423Z,41.2
2016-07-19T06:37:12.688Z,41.98
2016-07-19T06:38:13.383Z,41.59
2016-07-19T06:39:13.418Z,41.1
2016-07-19T06:40:12.615Z,41.78
2016-07-19T06:41:13.376Z,41.78
2016-07-19T06:42:13.348Z,41.69
2016-07-19T06:43:13.801Z,41.39
2016-07-19T06:44:13.432Z,41.71
2016-07-19T06:45:13.402Z,41.8
2016-07-19T06:46:13.489Z,41.22
2016-07-19T06:47:13.451Z,41.71
2016-07-19T06:48:14.287Z,41.9
2016-07-19T06:49:12.748Z,42.78
2016-07-19T06:50:13.452Z,42
2016-07-19T06:51:13.483Z,42.68
2016-07-19T06:52:12.834Z,42.68
2016-07-19T06:53:13.566Z,42.49
2016-07-19T06:54:13.571Z,42
2016-07-19T06:55:13.819Z,41.61
2016-07-19T06:56:13.633Z,41.71
2016-07-19T06:57:13.549Z,41.9
2016-07-19T06:58:13.606Z,41.22
2016-07-19T06:59:13.548Z,41.42
2016-07-19T07:00:13.551Z,41.22
2016-07-19T07:01:13.672Z,42
2016-07-19T07:02:13.636Z,42.1
2016-07-19T07:03:13.569Z,41.61
2016-07-19T07:04:12.928Z,41.13
2016-07-19T07:05:13.730Z,41.44
2016-07-19T07:06:13.703Z,41.63
2016-07-19T07:07:13.697Z,41.63
2016-07-19T07:08:13.682Z,41.63
2016-07-19T07:09:13.689Z,41.34
2016-07-19T07:10:14.809Z,41.34
2016-07-19T07:11:13.006Z,41.05
2016-07-19T07:12:12.967Z,41.63
2016-07-19T07:13:13.754Z,41.34
2016-07-19T07:14:13.057Z,41.63
2016-07-19T07:15:13.016Z,41.73
2016-07-19T07:16:13.015Z,41.34
2016-07-19T07:17:13.751Z,41.63
2016-07-19T07:18:13.048Z,41.44
2016-07-19T07:19:13.081Z,41.44
2016-07-19T07:20:13.076Z,41.63
2016-07-19T07:21:13.780Z,40.85
2016-07-19T07:22:13.950Z,41.63
2016-07-19T07:23:13.867Z,41.73
2016-07-19T07:24:13.218Z,41.63
2016-07-19T07:25:14.261Z,41.63
2016-07-19T07:26:13.169Z,41.44
2016-07-19T07:27:13.160Z,41.44
2016-07-19T07:28:14.031Z,41.44
2016-07-19T07:29:13.299Z,41.36
2016-07-19T07:30:13.185Z,41.46
2016-07-19T07:31:13.970Z,41.26
2016-07-19T07:32:13.997Z,41.05
2016-07-19T07:33:13.953Z,41.26
2016-07-19T07:34:14.014Z,40.95
2016-07-19T07:35:13.359Z,41.24
2016-07-19T07:36:13.291Z,41.63
2016-07-19T07:37:13.291Z,40.95
2016-07-19T07:38:13.307Z,41.85
2016-07-19T07:39:13.735Z,41.36
2016-07-19T07:40:13.368Z,41.55
2016-07-19T07:41:14.045Z,41.36
2016-07-19T07:42:13.382Z,41.65
2016-07-19T07:43:14.734Z,41.94
2016-07-19T07:44:14.125Z,41.73
2016-07-19T07:45:14.134Z,41.83
2016-07-19T07:46:14.227Z,42.02
2016-07-19T07:47:14.152Z,42.99
2016-07-19T07:48:13.470Z,42.68
2016-07-19T07:49:14.269Z,43.26
2016-07-19T07:50:13.516Z,43.54
2016-07-19T07:51:14.214Z,43.73
2016-07-19T07:52:14.249Z,44.21
2016-07-19T07:53:13.487Z,44.51
2016-07-19T07:54:14.166Z,44.7
2016-07-19T07:55:14.213Z,44.41
2016-07-19T07:56:14.602Z,44.51
2016-07-19T07:57:13.507Z,44.51
2016-07-19T07:58:14.313Z,44.99
2016-07-19T07:59:14.290Z,44.89
2016-07-19T08:00:14.319Z,45.28
2016-07-19T08:01:14.368Z,45.17
2016-07-19T08:02:14.244Z,44.97
2016-07-19T08:03:13.564Z,44.79
2016-07-19T08:04:14.334Z,45.17
2016-07-19T08:05:14.312Z,45.28
2016-07-19T08:06:14.331Z,45.28
2016-07-19T08:07:14.343Z,44.87
2016-07-19T08:08:13.671Z,44.7
2016-07-19T08:09:13.663Z,44.31
2016-07-19T08:10:14.470Z,44.51
2016-07-19T08:11:14.403Z,44.12
2016-07-19T08:12:14.435Z,44.12
2016-07-19T08:13:13.651Z,44.31
2016-07-19T08:14:15.259Z,44.41
2016-07-19T08:15:13.793Z,44.21
2016-07-19T08:16:14.491Z,44.41
2016-07-19T08:17:15.326Z,44.6
2016-07-19T08:18:14.422Z,44.51
2016-07-19T08:19:13.720Z,44.51
2016-07-19T08:20:14.458Z,44.7
2016-07-19T08:21:13.756Z,44.79
2016-07-19T08:22:13.833Z,44.99
2016-07-19T08:23:14.445Z,44.99
2016-07-19T08:24:13.779Z,45.09
2016-07-19T08:25:14.511Z,45.07
2016-07-19T08:26:14.477Z,45.18
2016-07-19T08:27:13.850Z,45.09
2016-07-19T08:28:14.545Z,45.09
2016-07-19T08:29:14.567Z,45.36
2016-07-19T08:30:15.274Z,44.87
2016-07-19T08:31:13.874Z,45.55
2016-07-19T08:32:14.596Z,45.36
2016-07-19T08:33:14.613Z,45.65
2016-07-19T08:34:14.617Z,45.26
2016-07-19T08:35:14.586Z,45.26
2016-07-19T08:36:14.643Z,45.26
2016-07-19T08:37:14.551Z,45.07
2016-07-19T08:38:14.785Z,45.65
2016-07-19T08:39:13.997Z,45.53
2016-07-19T08:40:13.902Z,45.36
2016-07-19T08:41:14.679Z,45.26
2016-07-19T08:42:14.593Z,45.17
2016-07-19T08:43:14.941Z,45.24
2016-07-19T08:44:14.607Z,45.43
2016-07-19T08:45:13.957Z,45.43
2016-07-19T08:46:16.378Z,45.53
2016-07-19T08:47:14.644Z,45.14
2016-07-19T08:48:14.702Z,45.53
2016-07-19T08:49:13.990Z,45.14
2016-07-19T08:50:14.778Z,45.34
2016-07-19T08:51:14.681Z,45.65
2016-07-19T08:52:14.038Z,45.53
2016-07-19T08:53:14.808Z,45.53
2016-07-19T08:54:13.992Z,45.53
2016-07-19T08:55:14.940Z,45.43
2016-07-19T08:56:14.074Z,45.45
2016-07-19T08:57:15.408Z,45.53
2016-07-19T08:58:14.811Z,45.53
2016-07-19T08:59:14.018Z,45.17
2016-07-19T09:00:14.773Z,45.45
2016-07-19T09:01:14.088Z,45.55
2016-07-19T09:02:15.202Z,45.84
2016-07-19T09:03:14.909Z,45.36
2016-07-19T09:04:14.845Z,45.55
2016-07-19T09:05:14.857Z,45.36
2016-07-19T09:06:14.122Z,45.45
2016-07-19T09:07:14.956Z,45.26
2016-07-19T09:08:14.189Z,45.07
2016-07-19T09:09:14.891Z,45.24
2016-07-19T09:10:14.876Z,45.36
2016-07-19T09:11:14.135Z,45.36
2016-07-19T09:12:14.155Z,45.55
2016-07-19T09:13:14.165Z,45.34
2016-07-19T09:14:14.926Z,45.26
2016-07-19T09:15:14.161Z,44.97
2016-07-19T09:16:14.956Z,45.14
2016-07-19T09:17:15.065Z,45.36
2016-07-19T09:18:14.878Z,44.97
2016-07-19T09:19:15.024Z,44.87
2016-07-19T09:20:14.984Z,44.87
2016-07-19T09:21:14.925Z,45.26
2016-07-19T09:22:14.282Z,45.36
2016-07-19T09:23:15.022Z,45.17
2016-07-19T09:24:15.006Z,45.26
2016-07-19T09:25:15.067Z,45.36
2016-07-19T09:26:14.999Z,45.36
2016-07-19T09:27:15.069Z,45.36
2016-07-19T09:28:14.979Z,45.26
2016-07-19T09:29:14.968Z,45.26
2016-07-19T09:30:15.124Z,45.17
2016-07-19T09:31:15.029Z,45.17
2016-07-19T09:32:15.107Z,45.45
2016-07-19T09:33:14.370Z,45.36
2016-07-19T09:34:15.037Z,45.36
2016-07-19T09:35:15.108Z,45.45
2016-07-19T09:36:15.165Z,45.36
2016-07-19T09:37:15.137Z,45.36
2016-07-19T09:38:14.487Z,45.36
2016-07-19T09:39:14.491Z,44.97
2016-07-19T09:40:15.098Z,45.36
2016-07-19T09:41:15.282Z,45.36
2016-07-19T09:42:14.374Z,45.26
2016-07-19T09:43:15.111Z,45.36
2016-07-19T09:44:14.382Z,45.36
2016-07-19T09:45:15.131Z,45.36
2016-07-19T09:46:14.552Z,45.36
2016-07-19T09:47:15.206Z,45.17
2016-07-19T09:48:15.233Z,45.07
2016-07-19T09:49:14.577Z,45.55
2016-07-19T09:50:15.252Z,45.55
2016-07-19T09:51:15.263Z,45.72
2016-07-19T09:52:15.277Z,45.75
2016-07-19T09:53:14.459Z,46.23
2016-07-19T09:54:16.313Z,45.75
2016-07-19T09:55:15.279Z,45.75
2016-07-19T09:56:15.219Z,45.65
2016-07-19T09:57:15.661Z,45.55
2016-07-19T09:58:15.265Z,45.55
2016-07-19T09:59:14.516Z,45.84
2016-07-19T10:00:15.397Z,46.04
2016-07-19T10:01:15.296Z,46.04
2016-07-19T10:02:15.274Z,46.14
2016-07-19T10:03:16.201Z,45.84
2016-07-19T10:04:15.386Z,45.94
2016-07-19T10:05:15.270Z,46.14
2016-07-19T10:06:14.929Z,46.04
2016-07-19T10:07:15.292Z,45.75
2016-07-19T10:08:15.530Z,45.84
2016-07-19T10:09:15.481Z,45.75
2016-07-19T10:10:14.644Z,45.36
2016-07-19T10:11:15.446Z,45.94
2016-07-19T10:12:15.344Z,45.94
2016-07-19T10:13:15.449Z,45.36
2016-07-19T10:14:15.571Z,45.75
2016-07-19T10:15:15.393Z,45.55
2016-07-19T10:16:14.753Z,45.75
2016-07-19T10:17:15.467Z,45.75
2016-07-19T10:18:15.458Z,46.04
2016-07-19T10:19:15.581Z,46.23
2016-07-19T10:20:15.468Z,46.33
2016-07-19T10:21:15.395Z,46.33
2016-07-19T10:22:14.784Z,46.33
2016-07-19T10:23:14.702Z,46.33
2016-07-19T10:24:14.777Z,45.94
2016-07-19T10:25:16.191Z,46.04
2016-07-19T10:26:15.485Z,45.75
2016-07-19T10:27:14.734Z,45.84
2016-07-19T10:28:15.473Z,45.45
2016-07-19T10:29:15.466Z,45.45
2016-07-19T10:30:15.486Z,44.97
2016-07-19T10:31:15.619Z,45.17
2016-07-19T10:32:15.480Z,44.78
2016-07-19T10:33:15.595Z,43.32
2016-07-19T10:34:14.788Z,44.31
2016-07-19T10:35:15.570Z,44.09
2016-07-19T10:36:15.808Z,44.48
2016-07-19T10:37:15.560Z,44.87
2016-07-19T10:38:14.975Z,45.07
2016-07-19T10:39:15.536Z,44.87
2016-07-19T10:40:15.624Z,45.36
2016-07-19T10:41:14.844Z,45.36
2016-07-19T10:42:15.717Z,45.17
2016-07-19T10:43:16.581Z,45.45
2016-07-19T10:44:15.594Z,45.65
2016-07-19T10:45:15.641Z,45.65
2016-07-19T10:46:14.961Z,45.36
2016-07-19T10:47:14.887Z,44.97
2016-07-19T10:48:14.939Z,45.26
2016-07-19T10:49:15.698Z,45.26
2016-07-19T10:50:15.742Z,45.17
2016-07-19T10:51:15.632Z,44.97
2016-07-19T10:52:14.967Z,44.87
2016-07-19T10:53:15.863Z,44.97
2016-07-19T10:54:29.304Z,44.48
2016-07-19T10:55:15.061Z,43.22
2016-07-19T10:56:14.953Z,44.12
2016-07-19T10:57:14.960Z,43.73
2016-07-19T10:58:15.676Z,44.09
2016-07-19T10:59:15.010Z,44.09
2016-07-19T11:00:15.773Z,44.09
2016-07-19T11:01:15.707Z,43.51
2016-07-19T11:02:15.720Z,43.54
2016-07-19T11:03:15.732Z,44.19
2016-07-19T11:04:15.785Z,44.38
2016-07-19T11:05:15.107Z,44.09
2016-07-19T11:06:15.830Z,43.51
2016-07-19T11:07:15.073Z,43.41
2016-07-19T11:08:15.744Z,44.41
2016-07-19T11:09:15.835Z,43.71
2016-07-19T11:10:15.875Z,43.63
2016-07-19T11:11:15.769Z,43.34
2016-07-19T11:12:15.878Z,42.95
2016-07-19T11:13:16.041Z,42.85
2016-07-19T11:14:15.836Z,42.56
2016-07-19T11:15:15.160Z,43.15
2016-07-19T11:16:15.856Z,43.54
2016-07-19T11:17:15.314Z,43.61
2016-07-19T11:18:15.129Z,43.41
2016-07-19T11:19:15.206Z,43.22
2016-07-19T11:20:15.945Z,43.15
2016-07-19T11:21:15.126Z,43.05
2016-07-19T11:22:15.915Z,43.05
2016-07-19T11:23:15.918Z,43.15
2016-07-19T11:24:15.867Z,43.34
2016-07-19T11:25:15.317Z,44.48
2016-07-19T11:26:15.874Z,43.51
2016-07-19T11:27:15.905Z,44.19
2016-07-19T11:28:15.941Z,42.44
2016-07-19T11:29:15.179Z,43.34
2016-07-19T11:30:15.281Z,43.15
2016-07-19T11:31:15.914Z,41.88
2016-07-19T11:32:15.923Z,41.39
2016-07-19T11:33:16.069Z,41.42
2016-07-19T11:34:15.921Z,40.83
2016-07-19T11:35:15.925Z,41.9
2016-07-19T11:36:15.966Z,42.76
2016-07-19T11:37:15.945Z,42.46
2016-07-19T11:38:15.274Z,42.85
2016-07-19T11:39:16.090Z,43.34
2016-07-19T11:40:15.310Z,43.63
2016-07-19T11:41:15.367Z,44.21
2016-07-19T11:42:15.307Z,43.71
2016-07-19T11:43:16.194Z,43.51
2016-07-19T11:44:15.308Z,42.74
2016-07-19T11:45:15.344Z,42.93
2016-07-19T11:46:15.303Z,43.22
2016-07-19T11:47:15.387Z,43.34
2016-07-19T11:48:16.067Z,43.63
2016-07-19T11:49:16.147Z,43.02
2016-07-19T11:50:15.479Z,43.05
2016-07-19T11:51:16.039Z,43.12
2016-07-19T11:52:15.338Z,42.85
2016-07-19T11:53:15.348Z,43.44
2016-07-19T11:54:16.061Z,43.15
2016-07-19T11:55:16.119Z,42.83
2016-07-19T11:56:15.370Z,43.02
2016-07-19T11:57:16.091Z,42.93
2016-07-19T11:58:15.387Z,43.05
2016-07-19T11:59:15.394Z,43.15
2016-07-19T12:00:15.505Z,42.93
2016-07-19T12:01:16.116Z,43.12
2016-07-19T12:02:15.486Z,43.02
2016-07-19T12:03:15.553Z,43.12
2016-07-19T12:04:15.488Z,43.12
2016-07-19T12:05:16.157Z,43.12
2016-07-19T12:06:16.189Z,42.93
2016-07-19T12:07:15.459Z,42.93
2016-07-19T12:08:16.292Z,42.83
2016-07-19T12:09:15.581Z,42.93
2016-07-19T12:10:16.306Z,42.54
2016-07-19T12:11:16.195Z,42.35
2016-07-19T12:12:16.207Z,42.64
2016-07-19T12:13:15.505Z,42.83
2016-07-19T12:14:16.341Z,42.64
2016-07-19T12:15:15.525Z,42.44
2016-07-19T12:16:16.377Z,42.44
2016-07-19T12:17:16.323Z,42.25
2016-07-19T12:18:16.253Z,42.54
2016-07-19T12:19:16.327Z,42.44
2016-07-19T12:20:16.353Z,42.54
2016-07-19T12:21:16.324Z,42.64
2016-07-19T12:22:16.407Z,42.35
2016-07-19T12:23:15.631Z,42.54
2016-07-19T12:24:16.298Z,41.86
2016-07-19T12:25:15.600Z,42.54
2016-07-19T12:26:15.612Z,42.54
2016-07-19T12:27:16.356Z,42.44
2016-07-19T12:28:15.625Z,42.93
2016-07-19T12:29:16.406Z,42.44
2016-07-19T12:30:15.641Z,42.05
2016-07-19T12:31:16.467Z,41.67
2016-07-19T12:32:15.716Z,41.67
2016-07-19T12:33:16.395Z,41.77
2016-07-19T12:34:16.428Z,41.86
2016-07-19T12:35:16.423Z,42.64
2016-07-19T12:36:16.496Z,42.54
2016-07-19T12:37:15.945Z,42.64
2016-07-19T12:38:15.706Z,42.74
2016-07-19T12:39:16.467Z,42.64
2016-07-19T12:40:16.426Z,42.93
2016-07-19T12:41:16.565Z,42.74
2016-07-19T12:42:15.764Z,42.93
2016-07-19T12:43:15.742Z,42.44
2016-07-19T12:44:16.597Z,42.15
2016-07-19T12:45:16.595Z,42.64
2016-07-19T12:46:15.766Z,42.64
2016-07-19T12:47:16.501Z,42.25
2016-07-19T12:48:15.872Z,42.44
2016-07-19T12:49:16.631Z,41.86
2016-07-19T12:50:15.922Z,41.57
2016-07-19T12:51:16.520Z,42.54
2016-07-19T12:52:16.536Z,40.21
2016-07-19T12:53:16.528Z,41.1
2016-07-19T12:54:16.532Z,42.64